| time (UTC) | temp F | wind direction | speed MPH | gust MPH | rain 1hr in | rain 24hr in | rain mn in | humidity % | barometer mb |
| 20260507130615 | 54 | 204 | 5.0 | 7.0 | 0.00 | 0.16 | 0.03 | 82 | 1010.8 |
| 20260507125714 | 54 | 229 | 1.0 | 4.0 | 0.00 | 0.16 | 0.03 | 82 | 1010.9 |
| 20260507124716 | 54 | 211 | 2.0 | 5.0 | 0.00 | 0.16 | 0.03 | 83 | 1011.0 |
| 20260507123814 | 53 | 4 | 1.0 | 5.0 | 0.00 | 0.16 | 0.03 | 83 | 1011.0 |
| 20260507122815 | 52 | 286 | 4.0 | 7.0 | 0.00 | 0.16 | 0.03 | 84 | 1010.9 |
| 20260507121817 | 52 | 266 | 2.0 | 6.0 | 0.00 | 0.16 | 0.03 | 84 | 1010.9 |
| 20260507120816 | 51 | 239 | 0.0 | 3.0 | 0.00 | 0.16 | 0.03 | 83 | 1011.1 |
| 20260507115817 | 51 | 253 | 4.0 | 6.0 | 0.00 | 0.16 | 0.03 | 84 | 1010.9 |
| 20260507114817 | 50 | 333 | 1.0 | 3.0 | 0.00 | 0.16 | 0.03 | 83 | 1010.9 |
| 20260507112915 | 49 | 225 | 1.0 | 3.0 | 0.00 | 0.16 | 0.03 | 84 | 1010.6 |
| 20260507111918 | 48 | 229 | 1.0 | 3.0 | 0.00 | 0.16 | 0.03 | 83 | 1010.8 |
| 20260507110915 | 48 | 223 | 1.0 | 2.0 | 0.00 | 0.16 | 0.03 | 83 | 1010.7 |
| 20260507105915 | 48 | 204 | 0.0 | 1.0 | 0.00 | 0.16 | 0.03 | 84 | 1010.6 |
| 20260507104916 | 47 | 202 | 0.0 | 1.0 | 0.00 | 0.16 | 0.03 | 84 | 1010.7 |
| 20260507102916 | 47 | 238 | 0.0 | 1.0 | 0.00 | 0.16 | 0.03 | 84 | 1010.4 |
| 20260507102015 | 47 | 223 | 1.0 | 3.0 | 0.01 | 0.16 | 0.03 | 84 | 1010.1 |
| 20260507101014 | 47 | 225 | 0.0 | 0.0 | 0.01 | 0.16 | 0.03 | 83 | 1009.9 |
| 20260507100019 | 47 | 67 | 0.0 | 0.0 | 0.01 | 0.16 | 0.03 | 83 | 1009.7 |
| 20260507095016 | 47 | 225 | 0.0 | 1.0 | 0.01 | 0.16 | 0.03 | 83 | 1010.0 |
| 20260507094015 | 47 | 67 | 0.0 | 0.0 | 0.01 | 0.16 | 0.03 | 83 | 1009.6 |
| 20260507093016 | 47 | 202 | 0.0 | 0.0 | 0.02 | 0.16 | 0.03 | 82 | 1010.2 |
| 20260507092016 | 47 | 202 | 0.0 | 0.0 | 0.01 | 0.15 | 0.02 | 82 | 1010.0 |
| 20260507091017 | 48 | 315 | 0.0 | 0.0 | 0.01 | 0.15 | 0.02 | 83 | 1010.1 |
| 20260507090015 | 48 | 225 | 0.0 | 0.0 | 0.01 | 0.15 | 0.02 | 83 | 1010.3 |
| 20260507085017 | 48 | 245 | 2.0 | 4.0 | 0.01 | 0.15 | 0.02 | 82 | 1010.6 |
| 20260507084016 | 48 | 270 | 0.0 | 0.0 | 0.01 | 0.15 | 0.02 | 82 | 1010.5 |
| 20260507083017 | 48 | 270 | 0.0 | 1.0 | 0.00 | 0.14 | 0.01 | 82 | 1010.1 |
| 20260507082016 | 48 | 209 | 1.0 | 2.0 | 0.01 | 0.14 | 0.01 | 82 | 1010.1 |
| 20260507081016 | 48 | 225 | 0.0 | 2.0 | 0.01 | 0.14 | 0.01 | 82 | 1010.0 |
| 20260507080017 | 48 | 247 | 1.0 | 2.0 | 0.01 | 0.14 | 0.01 | 83 | 1010.0 |
| 20260507075016 | 49 | 202 | 0.0 | 0.0 | 0.01 | 0.14 | 0.01 | 83 | 1010.0 |
| 20260507074017 | 49 | 310 | 0.0 | 1.0 | 0.01 | 0.14 | 0.01 | 82 | 1010.2 |
| 20260507073114 | 50 | 247 | 0.0 | 0.0 | 0.01 | 0.14 | 0.01 | 82 | 1010.1 |
| 20260507072116 | 51 | 276 | 0.0 | 1.0 | 0.00 | 0.13 | 0.00 | 83 | 1010.2 |
| 20260507071117 | 51 | 225 | 0.0 | 1.0 | 0.00 | 0.13 | 0.00 | 83 | 1009.6 |
| 20260507063216 | 51 | 225 | 0.0 | 0.0 | 0.00 | 0.13 | 0.00 | 84 | 1009.3 |
| 20260507062216 | 51 | 214 | 0.0 | 1.0 | 0.00 | 0.13 | 0.00 | 85 | 1009.5 |
| 20260507061216 | 52 | 277 | 1.0 | 2.0 | 0.00 | 0.13 | 0.00 | 85 | 1009.7 |
| 20260507060217 | 52 | 133 | 0.0 | 1.0 | 0.00 | 0.13 | 0.00 | 85 | 1009.6 |
| 20260507055315 | 52 | 315 | 0.0 | 1.0 | 0.00 | 0.13 | 0.00 | 84 | 1009.5 |
| 20260507054315 | 53 | 176 | 2.0 | 3.0 | 0.00 | 0.13 | 0.00 | 85 | 1009.6 |
| 20260507053316 | 53 | 8 | 1.0 | 3.0 | 0.00 | 0.13 | 0.00 | 85 | 1009.7 |
| 20260507052319 | 54 | 226 | 0.0 | 0.0 | 0.00 | 0.13 | 0.00 | 86 | 1009.7 |
| 20260507051316 | 54 | 225 | 0.0 | 0.0 | 0.00 | 0.13 | 0.00 | 85 | 1009.8 |
| 20260507050314 | 54 | 225 | 0.0 | 2.0 | 0.00 | 0.13 | 0.00 | 86 | 1009.8 |
| 20260507050216 | 54 | 225 | 0.0 | 1.0 | 0.00 | 0.13 | 0.00 | 85 | 1009.8 |
| 20260507045215 | 55 | 225 | 0.0 | 1.0 | 0.01 | 0.13 | 0.00 | 86 | 1009.7 |
| 20260507044217 | 55 | 216 | 2.0 | 3.0 | 0.01 | 0.13 | 0.00 | 85 | 1009.9 |
| 20260507043217 | 55 | 247 | 0.0 | 2.0 | 0.01 | 0.13 | 0.00 | 86 | 1009.7 |
| 20260507042216 | 56 | 300 | 0.0 | 2.0 | 0.01 | 0.13 | 0.00 | 86 | 1009.5 |
| 20260507041215 | 56 | 202 | 0.0 | 0.0 | 0.01 | 0.13 | 0.00 | 85 | 1009.6 |
| 20260507040217 | 57 | 208 | 3.0 | 3.0 | 0.01 | 0.13 | 0.00 | 86 | 1009.7 |
| 20260507035221 | 57 | 188 | 1.0 | 2.0 | 0.00 | 0.12 | 0.12 | 85 | 1009.6 |
| 20260507034221 | 58 | 178 | 0.0 | 2.0 | 0.00 | 0.12 | 0.12 | 86 | 1009.6 |
| 20260507032320 | 58 | 360 | 0.0 | 0.0 | 0.00 | 0.12 | 0.12 | 86 | 1009.3 |
| 20260507031320 | 58 | 225 | 0.0 | 0.0 | 0.00 | 0.12 | 0.12 | 85 | 1008.9 |
| 20260507030321 | 59 | 250 | 3.0 | 6.0 | 0.00 | 0.12 | 0.12 | 85 | 1008.9 |
| 20260507025320 | 59 | 256 | 3.0 | 7.0 | 0.00 | 0.12 | 0.12 | 84 | 1008.9 |
| 20260507024320 | 59 | 256 | 1.0 | 2.0 | 0.00 | 0.12 | 0.12 | 85 | 1008.6 |
| 20260507023320 | 59 | 270 | 0.0 | 0.0 | 0.00 | 0.12 | 0.12 | 84 | 1008.6 |
| 20260507022321 | 59 | 203 | 0.0 | 1.0 | 0.00 | 0.12 | 0.12 | 84 | 1008.7 |
| 20260507021322 | 59 | 248 | 2.0 | 3.0 | 0.00 | 0.12 | 0.12 | 84 | 1008.7 |
| 20260507020418 | 59 | 225 | 1.0 | 3.0 | 0.00 | 0.12 | 0.12 | 83 | 1008.5 |
| 20260507015321 | 59 | 224 | 3.0 | 6.0 | 0.00 | 0.12 | 0.12 | 84 | 1008.5 |
| 20260507014419 | 58 | 225 | 2.0 | 5.0 | 0.00 | 0.12 | 0.12 | 83 | 1008.7 |
| 20260507011420 | 59 | 199 | 1.0 | 5.0 | 0.00 | 0.12 | 0.12 | 83 | 1008.5 |
| 20260507010422 | 59 | 211 | 2.0 | 4.0 | 0.00 | 0.12 | 0.12 | 81 | 1008.7 |
| 20260507005422 | 58 | 224 | 4.0 | 7.0 | 0.00 | 0.12 | 0.12 | 81 | 1008.7 |
| 20260507004420 | 58 | 220 | 4.0 | 7.0 | 0.00 | 0.12 | 0.12 | 82 | 1008.8 |
| 20260507003422 | 58 | 223 | 1.0 | 5.0 | 0.00 | 0.12 | 0.12 | 81 | 1008.6 |
| 20260507002421 | 58 | 222 | 2.0 | 3.0 | 0.00 | 0.12 | 0.12 | 81 | 1008.7 |
| 20260507001519 | 58 | 260 | 0.0 | 2.0 | 0.00 | 0.12 | 0.12 | 80 | 1008.6 |
| 20260507000520 | 58 | 214 | 2.0 | 4.0 | 0.00 | 0.12 | 0.12 | 80 | 1008.6 |
| 20260506235522 | 58 | 206 | 1.0 | 4.0 | 0.01 | 0.12 | 0.12 | 79 | 1008.3 |
| 20260506234620 | 58 | 225 | 1.0 | 3.0 | 0.02 | 0.12 | 0.12 | 78 | 1008.4 |
| 20260506233621 | 58 | 213 | 3.0 | 6.0 | 0.03 | 0.12 | 0.12 | 78 | 1008.3 |
| 20260506232621 | 58 | 205 | 1.0 | 3.0 | 0.03 | 0.12 | 0.12 | 78 | 1008.4 |
| 20260506231719 | 58 | 217 | 3.0 | 5.0 | 0.03 | 0.12 | 0.12 | 77 | 1008.3 |
| 20260506230719 | 58 | 222 | 1.0 | 2.0 | 0.03 | 0.12 | 0.12 | 77 | 1008.2 |
| 20260506225721 | 59 | 217 | 3.0 | 6.0 | 0.02 | 0.11 | 0.11 | 77 | 1008.3 |
| 20260506224721 | 59 | 215 | 5.0 | 10.0 | 0.02 | 0.10 | 0.10 | 75 | 1008.4 |
| 20260506223720 | 59 | 214 | 2.0 | 3.0 | 0.01 | 0.09 | 0.09 | 75 | 1008.5 |
| 20260506222722 | 59 | 202 | 1.0 | 3.0 | 0.01 | 0.09 | 0.09 | 74 | 1008.6 |
| 20260506221722 | 59 | 225 | 3.0 | 6.0 | 0.01 | 0.09 | 0.09 | 74 | 1008.5 |
| 20260506220820 | 59 | 217 | 2.0 | 4.0 | 0.01 | 0.09 | 0.09 | 74 | 1008.6 |
| 20260506214837 | 59 | 208 | 1.0 | 3.0 | 0.00 | 0.08 | 0.08 | 71 | 1008.8 |
| 20260506213921 | 59 | 219 | 4.0 | 7.0 | 0.00 | 0.08 | 0.08 | 71 | 1008.8 |
| 20260506212922 | 59 | 213 | 1.0 | 4.0 | 0.00 | 0.08 | 0.08 | 70 | 1009.0 |
| 20260506211922 | 59 | 223 | 3.0 | 6.0 | 0.01 | 0.08 | 0.08 | 70 | 1009.1 |
| 20260506211020 | 59 | 222 | 3.0 | 7.0 | 0.02 | 0.08 | 0.08 | 70 | 1009.0 |
| 20260506210021 | 59 | 199 | 2.0 | 3.0 | 0.02 | 0.08 | 0.08 | 69 | 1009.2 |
| 20260506204120 | 59 | 218 | 2.0 | 4.0 | 0.03 | 0.08 | 0.08 | 67 | 1009.3 |
| 20260506202123 | 59 | 222 | 6.0 | 10.0 | 0.03 | 0.07 | 0.07 | 65 | 1009.5 |
| 20260506201120 | 60 | 223 | 2.0 | 6.0 | 0.04 | 0.07 | 0.06 | 64 | 1009.5 |
| 20260506200120 | 60 | 214 | 2.0 | 5.0 | 0.04 | 0.06 | 0.06 | 64 | 1009.4 |
| 20260506195120 | 61 | 222 | 1.0 | 3.0 | 0.05 | 0.06 | 0.06 | 64 | 1009.5 |
| 20260506194219 | 61 | 211 | 1.0 | 4.0 | 0.04 | 0.05 | 0.05 | 62 | 1009.4 |
| 20260506193222 | 61 | 205 | 3.0 | 4.0 | 0.05 | 0.05 | 0.05 | 61 | 1009.4 |
| 20260506191321 | 62 | 223 | 4.0 | 8.0 | 0.03 | 0.03 | 0.03 | 61 | 1009.5 |
| 20260506190320 | 62 | 209 | 2.0 | 3.0 | 0.02 | 0.02 | 0.02 | 60 | 1009.4 |
| 20260506185419 | 63 | 210 | 2.0 | 6.0 | 0.02 | 0.02 | 0.01 | 59 | 1009.4 |
| 20260506184421 | 64 | 217 | 2.0 | 5.0 | 0.01 | 0.01 | 0.01 | 59 | 1009.5 |
| 20260506183421 | 65 | 225 | 3.0 | 5.0 | 0.00 | 0.00 | 0.00 | 59 | 1009.7 |
| 20260506181420 | 67 | 209 | 4.0 | 7.0 | 0.00 | 0.00 | 0.00 | 58 | 1009.6 |
| 20260506180519 | 69 | 220 | 4.0 | 9.0 | 0.00 | 0.00 | 0.00 | 58 | 1009.7 |
| 20260506175522 | 70 | 218 | 7.0 | 10.0 | 0.00 | 0.00 | 0.00 | 59 | 1009.8 |
| 20260506172622 | 72 | 226 | 5.0 | 10.0 | 0.00 | 0.00 | 0.00 | 61 | 1009.6 |
| 20260506171620 | 72 | 214 | 2.0 | 5.0 | 0.00 | 0.00 | 0.00 | 60 | 1009.6 |
| 20260506170619 | 72 | 230 | 3.0 | 6.0 | 0.00 | 0.00 | 0.00 | 62 | 1009.6 |
| 20260506165622 | 72 | 224 | 4.0 | 7.0 | 0.00 | 0.00 | 0.00 | 61 | 1009.8 |
| 20260506164619 | 72 | 208 | 5.0 | 10.0 | 0.00 | 0.00 | 0.00 | 62 | 1009.8 |
| 20260506163621 | 71 | 203 | 1.0 | 2.0 | 0.00 | 0.00 | 0.00 | 63 | 1009.9 |
| 20260506162621 | 71 | 227 | 3.0 | 4.0 | 0.00 | 0.00 | 0.00 | 64 | 1010.2 |
| 20260506161620 | 70 | 217 | 4.0 | 10.0 | 0.00 | 0.00 | 0.00 | 64 | 1010.3 |
| 20260506160719 | 70 | 203 | 5.0 | 10.0 | 0.00 | 0.00 | 0.00 | 64 | 1010.5 |
| 20260506154818 | 70 | 218 | 3.0 | 4.0 | 0.00 | 0.00 | 0.00 | 66 | 1010.8 |
| 20260506153821 | 70 | 243 | 2.0 | 5.0 | 0.00 | 0.00 | 0.00 | 65 | 1011.1 |
| 20260506152919 | 70 | 217 | 5.0 | 9.0 | 0.00 | 0.00 | 0.00 | 66 | 1011.2 |
| 20260506151920 | 70 | 229 | 8.0 | 14.0 | 0.00 | 0.00 | 0.00 | 67 | 1011.2 |
| 20260506151836 | 70 | 215 | 9.0 | 14.0 | 0.00 | 0.00 | 0.00 | 66 | 1011.1 |
| 20260506145819 | 69 | 223 | 2.0 | 5.0 | 0.00 | 0.00 | 0.00 | 67 | 1011.4 |
| 20260506144820 | 68 | 214 | 5.0 | 10.0 | 0.00 | 0.00 | 0.00 | 68 | 1011.6 |
| 20260506143820 | 68 | 243 | 2.0 | 4.0 | 0.00 | 0.00 | 0.00 | 68 | 1011.7 |
| 20260506142821 | 67 | 246 | 5.0 | 11.0 | 0.00 | 0.00 | 0.00 | 68 | 1011.6 |
| 20260506141820 | 67 | 219 | 3.0 | 7.0 | 0.00 | 0.00 | 0.00 | 68 | 1011.5 |
| 20260506140821 | 67 | 215 | 5.0 | 8.0 | 0.00 | 0.00 | 0.00 | 69 | 1011.6 |
| 20260506134922 | 66 | 214 | 5.0 | 9.0 | 0.00 | 0.00 | 0.00 | 69 | 1011.6 |
| 20260506132920 | 66 | 282 | 5.0 | 7.0 | 0.00 | 0.00 | 0.00 | 70 | 1011.8 |
| 20260506131920 | 65 | 209 | 5.0 | 8.0 | 0.00 | 0.00 | 0.00 | 70 | 1012.1 |
| 20260506130920 | 64 | 233 | 2.0 | 5.0 | 0.00 | 0.00 | 0.00 | 69 | 1012.3 |